sensor_id;sensor_type;location;lat;lon;timestamp;temperature;humidity
3701;DHT22;1866;48.374;10.766;2023-04-19T00:01:36;8.20;48.00
3701;DHT22;1866;48.374;10.766;2023-04-19T00:04:05;8.20;50.40
3701;DHT22;1866;48.374;10.766;2023-04-19T00:06:32;8.20;48.60
3701;DHT22;1866;48.374;10.766;2023-04-19T00:08:59;8.20;61.90
3701;DHT22;1866;48.374;10.766;2023-04-19T00:11:27;8.20;56.00
3701;DHT22;1866;48.374;10.766;2023-04-19T00:13:55;8.20;61.50
3701;DHT22;1866;48.374;10.766;2023-04-19T00:16:22;8.20;54.70
3701;DHT22;1866;48.374;10.766;2023-04-19T00:18:49;8.10;64.00
3701;DHT22;1866;48.374;10.766;2023-04-19T00:21:16;8.10;66.80
3701;DHT22;1866;48.374;10.766;2023-04-19T00:23:43;8.10;71.30
3701;DHT22;1866;48.374;10.766;2023-04-19T00:26:11;8.10;73.60
3701;DHT22;1866;48.374;10.766;2023-04-19T00:28:40;8.10;77.20
3701;DHT22;1866;48.374;10.766;2023-04-19T00:31:08;8.10;75.90
3701;DHT22;1866;48.374;10.766;2023-04-19T00:33:35;8.10;72.20
3701;DHT22;1866;48.374;10.766;2023-04-19T00:36:02;8.10;71.60
3701;DHT22;1866;48.374;10.766;2023-04-19T00:38:29;8.10;72.40
3701;DHT22;1866;48.374;10.766;2023-04-19T00:40:58;8.10;79.90
3701;DHT22;1866;48.374;10.766;2023-04-19T00:43:25;8.10;80.10
3701;DHT22;1866;48.374;10.766;2023-04-19T00:45:52;8.10;81.00
3701;DHT22;1866;48.374;10.766;2023-04-19T00:48:20;8.00;83.10
3701;DHT22;1866;48.374;10.766;2023-04-19T00:50:47;8.00;82.70
3701;DHT22;1866;48.374;10.766;2023-04-19T00:53:15;8.00;84.90
3701;DHT22;1866;48.374;10.766;2023-04-19T00:55:42;8.00;85.60
3701;DHT22;1866;48.374;10.766;2023-04-19T00:58:09;8.00;81.50
3701;DHT22;1866;48.374;10.766;2023-04-19T01:00:36;8.00;89.20
3701;DHT22;1866;48.374;10.766;2023-04-19T01:03:03;8.00;95.20
3701;DHT22;1866;48.374;10.766;2023-04-19T01:05:31;8.00;96.10
3701;DHT22;1866;48.374;10.766;2023-04-19T01:07:58;8.00;98.80
3701;DHT22;1866;48.374;10.766;2023-04-19T01:10:25;8.00;99.90
3701;DHT22;1866;48.374;10.766;2023-04-19T01:12:52;8.00;99.90
3701;DHT22;1866;48.374;10.766;2023-04-19T01:15:19;8.00;99.90
3701;DHT22;1866;48.374;10.766;2023-04-19T01:17:46;8.00;99.90
3701;DHT22;1866;48.374;10.766;2023-04-19T01:20:13;7.90;99.90
3701;DHT22;1866;48.374;10.766;2023-04-19T01:22:41;7.90;99.90
3701;DHT22;1866;48.374;10.766;2023-04-19T01:25:08;7.90;99.90
3701;DHT22;1866;48.374;10.766;2023-04-19T01:27:38;7.90;99.90
3701;DHT22;1866;48.374;10.766;2023-04-19T01:30:07;7.90;99.90
3701;DHT22;1866;48.374;10.766;2023-04-19T01:32:35;7.90;99.90
3701;DHT22;1866;48.374;10.766;2023-04-19T01:35:04;7.90;99.90
3701;DHT22;1866;48.374;10.766;2023-04-19T01:37:34;7.90;99.90
3701;DHT22;1866;48.374;10.766;2023-04-19T01:40:02;7.80;99.90
3701;DHT22;1866;48.374;10.766;2023-04-19T01:42:30;7.80;99.90
3701;DHT22;1866;48.374;10.766;2023-04-19T01:44:56;7.80;99.90
3701;DHT22;1866;48.374;10.766;2023-04-19T01:47:23;7.80;99.90
3701;DHT22;1866;48.374;10.766;2023-04-19T01:49:50;7.80;99.90
3701;DHT22;1866;48.374;10.766;2023-04-19T01:52:17;7.80;99.90
3701;DHT22;1866;48.374;10.766;2023-04-19T01:54:44;7.80;99.90
3701;DHT22;1866;48.374;10.766;2023-04-19T01:57:12;7.70;99.90
3701;DHT22;1866;48.374;10.766;2023-04-19T01:59:42;7.70;99.90
3701;DHT22;1866;48.374;10.766;2023-04-19T02:02:09;7.70;99.90
3701;DHT22;1866;48.374;10.766;2023-04-19T02:04:36;7.70;99.90
3701;DHT22;1866;48.374;10.766;2023-04-19T02:07:03;7.70;99.90
3701;DHT22;1866;48.374;10.766;2023-04-19T02:09:30;7.70;99.90
3701;DHT22;1866;48.374;10.766;2023-04-19T02:12:00;7.70;99.90
3701;DHT22;1866;48.374;10.766;2023-04-19T02:14:28;7.70;99.90
3701;DHT22;1866;48.374;10.766;2023-04-19T02:16:55;7.60;99.90
3701;DHT22;1866;48.374;10.766;2023-04-19T02:19:22;7.60;99.90
3701;DHT22;1866;48.374;10.766;2023-04-19T02:21:49;7.60;99.90
3701;DHT22;1866;48.374;10.766;2023-04-19T02:24:16;7.60;99.90
3701;DHT22;1866;48.374;10.766;2023-04-19T02:26:43;7.60;99.90
3701;DHT22;1866;48.374;10.766;2023-04-19T02:29:09;7.60;99.90
3701;DHT22;1866;48.374;10.766;2023-04-19T02:31:38;7.60;99.90
3701;DHT22;1866;48.374;10.766;2023-04-19T02:34:04;7.60;99.90
3701;DHT22;1866;48.374;10.766;2023-04-19T02:36:31;7.60;99.90
3701;DHT22;1866;48.374;10.766;2023-04-19T02:38:59;7.50;99.90
3701;DHT22;1866;48.374;10.766;2023-04-19T02:41:28;7.60;99.90
3701;DHT22;1866;48.374;10.766;2023-04-19T02:43:55;7.70;99.90
3701;DHT22;1866;48.374;10.766;2023-04-19T02:46:22;7.60;99.90
3701;DHT22;1866;48.374;10.766;2023-04-19T02:48:50;7.60;99.90
3701;DHT22;1866;48.374;10.766;2023-04-19T02:51:17;7.60;99.90
3701;DHT22;1866;48.374;10.766;2023-04-19T02:53:43;7.60;99.90
3701;DHT22;1866;48.374;10.766;2023-04-19T02:56:11;7.60;99.90
3701;DHT22;1866;48.374;10.766;2023-04-19T02:58:38;7.60;99.90
3701;DHT22;1866;48.374;10.766;2023-04-19T03:01:06;7.60;99.90
3701;DHT22;1866;48.374;10.766;2023-04-19T03:03:33;7.60;99.90
3701;DHT22;1866;48.374;10.766;2023-04-19T03:06:01;7.70;99.90
3701;DHT22;1866;48.374;10.766;2023-04-19T03:08:30;7.60;99.90
3701;DHT22;1866;48.374;10.766;2023-04-19T03:10:57;7.60;99.90
3701;DHT22;1866;48.374;10.766;2023-04-19T03:13:24;7.60;99.90
3701;DHT22;1866;48.374;10.766;2023-04-19T03:15:51;7.50;99.90
3701;DHT22;1866;48.374;10.766;2023-04-19T03:18:17;7.60;99.90
3701;DHT22;1866;48.374;10.766;2023-04-19T03:20:45;7.50;99.90
3701;DHT22;1866;48.374;10.766;2023-04-19T03:23:13;7.50;99.90
3701;DHT22;1866;48.374;10.766;2023-04-19T03:25:40;7.60;99.90
3701;DHT22;1866;48.374;10.766;2023-04-19T03:28:07;7.50;99.90
3701;DHT22;1866;48.374;10.766;2023-04-19T03:30:33;7.60;99.90
3701;DHT22;1866;48.374;10.766;2023-04-19T03:33:00;7.60;99.90
3701;DHT22;1866;48.374;10.766;2023-04-19T03:35:27;7.60;99.90
3701;DHT22;1866;48.374;10.766;2023-04-19T03:37:56;7.60;99.90
3701;DHT22;1866;48.374;10.766;2023-04-19T03:40:27;7.60;99.90
3701;DHT22;1866;48.374;10.766;2023-04-19T03:42:54;7.60;99.90
3701;DHT22;1866;48.374;10.766;2023-04-19T03:45:21;7.50;99.90
3701;DHT22;1866;48.374;10.766;2023-04-19T03:47:47;7.60;99.90
3701;DHT22;1866;48.374;10.766;2023-04-19T03:50:14;7.60;99.90
3701;DHT22;1866;48.374;10.766;2023-04-19T03:52:41;7.60;99.90
3701;DHT22;1866;48.374;10.766;2023-04-19T03:55:09;7.50;99.90
3701;DHT22;1866;48.374;10.766;2023-04-19T03:57:38;7.50;99.90
3701;DHT22;1866;48.374;10.766;2023-04-19T04:00:06;7.50;99.90
3701;DHT22;1866;48.374;10.766;2023-04-19T04:02:35;7.50;99.90
3701;DHT22;1866;48.374;10.766;2023-04-19T04:05:02;7.50;99.90
3701;DHT22;1866;48.374;10.766;2023-04-19T04:07:29;7.60;99.90
3701;DHT22;1866;48.374;10.766;2023-04-19T04:09:56;7.60;99.90
3701;DHT22;1866;48.374;10.766;2023-04-19T04:12:23;7.60;99.90
3701;DHT22;1866;48.374;10.766;2023-04-19T04:14:51;7.60;99.90
3701;DHT22;1866;48.374;10.766;2023-04-19T04:17:18;7.60;99.90
3701;DHT22;1866;48.374;10.766;2023-04-19T04:19:45;7.60;99.90
3701;DHT22;1866;48.374;10.766;2023-04-19T04:22:12;7.60;99.90
3701;DHT22;1866;48.374;10.766;2023-04-19T04:24:40;7.60;99.90
3701;DHT22;1866;48.374;10.766;2023-04-19T04:27:07;7.60;99.90
3701;DHT22;1866;48.374;10.766;2023-04-19T04:29:35;7.70;99.90
3701;DHT22;1866;48.374;10.766;2023-04-19T04:32:05;7.70;99.90
3701;DHT22;1866;48.374;10.766;2023-04-19T04:34:34;7.70;99.90
3701;DHT22;1866;48.374;10.766;2023-04-19T04:37:02;7.70;99.90
3701;DHT22;1866;48.374;10.766;2023-04-19T04:39:33;7.60;99.90
3701;DHT22;1866;48.374;10.766;2023-04-19T04:42:03;7.60;99.90
3701;DHT22;1866;48.374;10.766;2023-04-19T04:44:32;7.60;99.90
3701;DHT22;1866;48.374;10.766;2023-04-19T04:47:00;7.60;99.90
3701;DHT22;1866;48.374;10.766;2023-04-19T04:49:28;7.60;99.90
3701;DHT22;1866;48.374;10.766;2023-04-19T04:51:56;7.60;99.90
3701;DHT22;1866;48.374;10.766;2023-04-19T04:54:23;7.70;99.90
3701;DHT22;1866;48.374;10.766;2023-04-19T04:56:50;7.60;99.90
3701;DHT22;1866;48.374;10.766;2023-04-19T04:59:18;7.70;99.90
3701;DHT22;1866;48.374;10.766;2023-04-19T05:01:49;7.70;99.90
3701;DHT22;1866;48.374;10.766;2023-04-19T05:04:17;7.70;99.90
3701;DHT22;1866;48.374;10.766;2023-04-19T05:06:45;7.70;99.90
3701;DHT22;1866;48.374;10.766;2023-04-19T05:09:12;7.70;99.90
3701;DHT22;1866;48.374;10.766;2023-04-19T05:11:39;7.70;99.90
3701;DHT22;1866;48.374;10.766;2023-04-19T05:14:06;7.70;99.90
3701;DHT22;1866;48.374;10.766;2023-04-19T05:16:33;7.70;99.90
3701;DHT22;1866;48.374;10.766;2023-04-19T05:19:01;7.70;99.90
3701;DHT22;1866;48.374;10.766;2023-04-19T05:21:30;7.70;99.90
3701;DHT22;1866;48.374;10.766;2023-04-19T05:24:06;7.70;99.90
3701;DHT22;1866;48.374;10.766;2023-04-19T05:26:35;7.60;99.90
3701;DHT22;1866;48.374;10.766;2023-04-19T05:29:03;7.60;99.90
3701;DHT22;1866;48.374;10.766;2023-04-19T05:31:30;7.60;99.90
3701;DHT22;1866;48.374;10.766;2023-04-19T05:33:57;7.60;99.90
3701;DHT22;1866;48.374;10.766;2023-04-19T05:36:24;7.60;99.90
3701;DHT22;1866;48.374;10.766;2023-04-19T05:38:52;7.60;99.90
3701;DHT22;1866;48.374;10.766;2023-04-19T05:41:21;7.60;99.90
3701;DHT22;1866;48.374;10.766;2023-04-19T05:43:49;7.70;99.90
3701;DHT22;1866;48.374;10.766;2023-04-19T05:46:15;7.70;99.90
3701;DHT22;1866;48.374;10.766;2023-04-19T05:48:42;7.70;99.90
3701;DHT22;1866;48.374;10.766;2023-04-19T05:51:09;7.60;99.90
3701;DHT22;1866;48.374;10.766;2023-04-19T05:53:36;7.70;99.90
3701;DHT22;1866;48.374;10.766;2023-04-19T05:56:04;7.70;99.90
3701;DHT22;1866;48.374;10.766;2023-04-19T05:58:32;7.70;99.20
3701;DHT22;1866;48.374;10.766;2023-04-19T06:00:59;7.70;99.90
3701;DHT22;1866;48.374;10.766;2023-04-19T06:03:26;7.60;94.20
3701;DHT22;1866;48.374;10.766;2023-04-19T06:05:53;7.70;98.50
3701;DHT22;1866;48.374;10.766;2023-04-19T06:08:19;7.70;93.40
3701;DHT22;1866;48.374;10.766;2023-04-19T06:10:46;7.70;76.70
3701;DHT22;1866;48.374;10.766;2023-04-19T06:13:14;7.80;77.50
3701;DHT22;1866;48.374;10.766;2023-04-19T06:15:42;7.70;63.40
3701;DHT22;1866;48.374;10.766;2023-04-19T06:18:09;7.70;51.30
3701;DHT22;1866;48.374;10.766;2023-04-19T06:20:37;7.70;49.30
3701;DHT22;1866;48.374;10.766;2023-04-19T06:23:04;7.80;51.00
3701;DHT22;1866;48.374;10.766;2023-04-19T06:25:32;7.80;27.30
3701;DHT22;1866;48.374;10.766;2023-04-19T06:28:00;7.80;25.30
3701;DHT22;1866;48.374;10.766;2023-04-19T06:30:27;7.80;25.40
3701;DHT22;1866;48.374;10.766;2023-04-19T06:32:55;7.80;23.10
3701;DHT22;1866;48.374;10.766;2023-04-19T06:35:22;7.90;15.30
3701;DHT22;1866;48.374;10.766;2023-04-19T06:37:49;7.80;13.00
3701;DHT22;1866;48.374;10.766;2023-04-19T06:40:17;7.80;12.50
3701;DHT22;1866;48.374;10.766;2023-04-19T06:42:45;7.90;9.20
3701;DHT22;1866;48.374;10.766;2023-04-19T06:45:12;7.90;1.50
3701;DHT22;1866;48.374;10.766;2023-04-19T06:47:40;7.90;1.00
3701;DHT22;1866;48.374;10.766;2023-04-19T06:50:10;7.90;1.00
3701;DHT22;1866;48.374;10.766;2023-04-19T06:52:36;7.90;1.00
3701;DHT22;1866;48.374;10.766;2023-04-19T06:55:04;8.00;1.00
3701;DHT22;1866;48.374;10.766;2023-04-19T06:57:31;8.00;1.00
3701;DHT22;1866;48.374;10.766;2023-04-19T06:59:58;8.10;1.00
3701;DHT22;1866;48.374;10.766;2023-04-19T07:02:25;8.10;1.00
3701;DHT22;1866;48.374;10.766;2023-04-19T07:04:52;8.20;1.00
3701;DHT22;1866;48.374;10.766;2023-04-19T07:07:20;8.20;1.00
3701;DHT22;1866;48.374;10.766;2023-04-19T07:09:47;8.30;1.00
3701;DHT22;1866;48.374;10.766;2023-04-19T07:12:14;8.40;1.00
3701;DHT22;1866;48.374;10.766;2023-04-19T07:14:40;8.50;1.00
3701;DHT22;1866;48.374;10.766;2023-04-19T07:17:07;8.60;1.00
3701;DHT22;1866;48.374;10.766;2023-04-19T07:19:34;8.50;1.00
3701;DHT22;1866;48.374;10.766;2023-04-19T07:22:01;8.60;1.00
3701;DHT22;1866;48.374;10.766;2023-04-19T07:24:30;8.60;1.00
3701;DHT22;1866;48.374;10.766;2023-04-19T07:26:56;8.60;1.00
3701;DHT22;1866;48.374;10.766;2023-04-19T07:29:23;8.50;1.00
3701;DHT22;1866;48.374;10.766;2023-04-19T07:31:50;8.70;1.00
3701;DHT22;1866;48.374;10.766;2023-04-19T07:34:19;8.60;1.00
3701;DHT22;1866;48.374;10.766;2023-04-19T07:36:46;8.90;1.00
3701;DHT22;1866;48.374;10.766;2023-04-19T07:39:13;8.80;1.00
3701;DHT22;1866;48.374;10.766;2023-04-19T07:41:41;8.90;1.00
3701;DHT22;1866;48.374;10.766;2023-04-19T07:44:08;8.80;1.00
3701;DHT22;1866;48.374;10.766;2023-04-19T07:46:36;8.90;1.00
3701;DHT22;1866;48.374;10.766;2023-04-19T07:49:03;9.00;1.00
3701;DHT22;1866;48.374;10.766;2023-04-19T07:51:29;9.00;1.00
3701;DHT22;1866;48.374;10.766;2023-04-19T07:53:58;9.00;1.00
3701;DHT22;1866;48.374;10.766;2023-04-19T07:56:27;9.00;1.00
3701;DHT22;1866;48.374;10.766;2023-04-19T07:58:55;9.10;1.00
3701;DHT22;1866;48.374;10.766;2023-04-19T08:01:22;9.30;1.00
3701;DHT22;1866;48.374;10.766;2023-04-19T08:03:49;9.50;1.00
3701;DHT22;1866;48.374;10.766;2023-04-19T08:06:16;9.80;1.00
3701;DHT22;1866;48.374;10.766;2023-04-19T08:08:43;9.60;1.00
3701;DHT22;1866;48.374;10.766;2023-04-19T08:11:10;9.20;1.00
3701;DHT22;1866;48.374;10.766;2023-04-19T08:13:37;9.40;1.00
3701;DHT22;1866;48.374;10.766;2023-04-19T08:16:06;9.50;1.00
3701;DHT22;1866;48.374;10.766;2023-04-19T08:18:33;9.60;1.00
3701;DHT22;1866;48.374;10.766;2023-04-19T08:21:01;9.50;1.00
3701;DHT22;1866;48.374;10.766;2023-04-19T08:23:27;9.20;1.00
3701;DHT22;1866;48.374;10.766;2023-04-19T08:25:55;9.20;1.00
3701;DHT22;1866;48.374;10.766;2023-04-19T08:28:22;9.30;1.00
3701;DHT22;1866;48.374;10.766;2023-04-19T08:30:49;9.40;1.00
3701;DHT22;1866;48.374;10.766;2023-04-19T08:33:17;9.50;1.00
3701;DHT22;1866;48.374;10.766;2023-04-19T08:35:44;9.80;1.00
3701;DHT22;1866;48.374;10.766;2023-04-19T08:38:11;9.70;1.00
3701;DHT22;1866;48.374;10.766;2023-04-19T08:40:44;9.80;1.00
3701;DHT22;1866;48.374;10.766;2023-04-19T08:43:11;9.70;1.00
3701;DHT22;1866;48.374;10.766;2023-04-19T08:45:38;9.80;1.00
3701;DHT22;1866;48.374;10.766;2023-04-19T08:48:08;10.00;1.00
3701;DHT22;1866;48.374;10.766;2023-04-19T08:50:38;10.10;1.00
3701;DHT22;1866;48.374;10.766;2023-04-19T08:53:06;10.00;1.00
3701;DHT22;1866;48.374;10.766;2023-04-19T08:55:34;10.00;1.00
3701;DHT22;1866;48.374;10.766;2023-04-19T08:58:02;9.90;1.00
3701;DHT22;1866;48.374;10.766;2023-04-19T09:00:30;9.80;1.00
3701;DHT22;1866;48.374;10.766;2023-04-19T09:02:58;10.00;1.00
3701;DHT22;1866;48.374;10.766;2023-04-19T09:05:25;10.40;1.00
3701;DHT22;1866;48.374;10.766;2023-04-19T09:07:53;10.40;1.00
3701;DHT22;1866;48.374;10.766;2023-04-19T09:10:20;10.20;1.00
3701;DHT22;1866;48.374;10.766;2023-04-19T09:13:00;10.20;1.00
3701;DHT22;1866;48.374;10.766;2023-04-19T09:15:35;10.00;1.00
3701;DHT22;1866;48.374;10.766;2023-04-19T09:18:04;10.20;1.00
3701;DHT22;1866;48.374;10.766;2023-04-19T09:20:36;10.10;1.00
3701;DHT22;1866;48.374;10.766;2023-04-19T09:23:06;10.00;1.00
3701;DHT22;1866;48.374;10.766;2023-04-19T09:25:33;10.20;1.00
3701;DHT22;1866;48.374;10.766;2023-04-19T09:28:11;10.20;1.00
3701;DHT22;1866;48.374;10.766;2023-04-19T09:30:38;10.00;1.00
3701;DHT22;1866;48.374;10.766;2023-04-19T09:33:05;10.10;1.00
3701;DHT22;1866;48.374;10.766;2023-04-19T09:35:39;9.70;1.00
3701;DHT22;1866;48.374;10.766;2023-04-19T09:38:08;9.70;1.00
3701;DHT22;1866;48.374;10.766;2023-04-19T09:40:36;9.90;1.00
3701;DHT22;1866;48.374;10.766;2023-04-19T09:43:04;10.20;1.00
3701;DHT22;1866;48.374;10.766;2023-04-19T09:45:42;10.40;1.00
3701;DHT22;1866;48.374;10.766;2023-04-19T09:48:11;10.40;1.00
3701;DHT22;1866;48.374;10.766;2023-04-19T09:50:51;10.50;1.00
3701;DHT22;1866;48.374;10.766;2023-04-19T09:53:20;10.70;1.00
3701;DHT22;1866;48.374;10.766;2023-04-19T09:55:47;10.70;1.00
3701;DHT22;1866;48.374;10.766;2023-04-19T09:58:21;10.50;1.00
3701;DHT22;1866;48.374;10.766;2023-04-19T10:00:48;10.60;1.00
3701;DHT22;1866;48.374;10.766;2023-04-19T10:03:17;10.20;1.00
3701;DHT22;1866;48.374;10.766;2023-04-19T10:05:46;10.40;1.00
3701;DHT22;1866;48.374;10.766;2023-04-19T10:08:14;10.40;1.00
3701;DHT22;1866;48.374;10.766;2023-04-19T10:10:44;10.70;1.00
3701;DHT22;1866;48.374;10.766;2023-04-19T10:13:16;10.70;1.00
3701;DHT22;1866;48.374;10.766;2023-04-19T10:15:47;10.90;1.00
3701;DHT22;1866;48.374;10.766;2023-04-19T10:18:14;11.00;1.00
3701;DHT22;1866;48.374;10.766;2023-04-19T10:20:48;11.10;1.00
3701;DHT22;1866;48.374;10.766;2023-04-19T10:23:17;11.10;1.00
3701;DHT22;1866;48.374;10.766;2023-04-19T10:25:46;10.60;1.00
3701;DHT22;1866;48.374;10.766;2023-04-19T10:28:14;10.70;1.00
3701;DHT22;1866;48.374;10.766;2023-04-19T10:30:52;10.90;1.00
3701;DHT22;1866;48.374;10.766;2023-04-19T10:33:24;11.00;1.00
3701;DHT22;1866;48.374;10.766;2023-04-19T10:35:55;10.90;1.00
3701;DHT22;1866;48.374;10.766;2023-04-19T10:38:35;10.80;1.00
3701;DHT22;1866;48.374;10.766;2023-04-19T10:41:04;10.80;1.00
3701;DHT22;1866;48.374;10.766;2023-04-19T10:43:36;10.70;1.00
3701;DHT22;1866;48.374;10.766;2023-04-19T10:46:06;10.60;1.00
3701;DHT22;1866;48.374;10.766;2023-04-19T10:48:52;10.50;1.00
3701;DHT22;1866;48.374;10.766;2023-04-19T10:51:22;10.60;1.00
3701;DHT22;1866;48.374;10.766;2023-04-19T10:53:54;10.50;1.00
3701;DHT22;1866;48.374;10.766;2023-04-19T10:56:57;10.40;1.00
3701;DHT22;1866;48.374;10.766;2023-04-19T10:59:25;10.20;1.00
3701;DHT22;1866;48.374;10.766;2023-04-19T11:01:54;10.00;1.00
3701;DHT22;1866;48.374;10.766;2023-04-19T11:04:23;9.80;1.00
3701;DHT22;1866;48.374;10.766;2023-04-19T11:06:57;9.70;1.00
3701;DHT22;1866;48.374;10.766;2023-04-19T11:09:27;9.60;1.00
3701;DHT22;1866;48.374;10.766;2023-04-19T11:11:59;9.70;1.00
3701;DHT22;1866;48.374;10.766;2023-04-19T11:14:29;9.70;1.00
3701;DHT22;1866;48.374;10.766;2023-04-19T11:16:57;9.60;1.00
3701;DHT22;1866;48.374;10.766;2023-04-19T11:19:24;9.60;1.00
3701;DHT22;1866;48.374;10.766;2023-04-19T11:21:51;9.80;1.00
3701;DHT22;1866;48.374;10.766;2023-04-19T11:24:18;9.70;1.00
3701;DHT22;1866;48.374;10.766;2023-04-19T11:26:45;9.70;1.00
3701;DHT22;1866;48.374;10.766;2023-04-19T11:29:14;9.80;1.00
3701;DHT22;1866;48.374;10.766;2023-04-19T11:31:43;10.00;1.00
3701;DHT22;1866;48.374;10.766;2023-04-19T11:34:13;10.00;1.00
3701;DHT22;1866;48.374;10.766;2023-04-19T11:36:47;9.70;1.00
3701;DHT22;1866;48.374;10.766;2023-04-19T11:39:14;9.70;1.00
3701;DHT22;1866;48.374;10.766;2023-04-19T11:41:41;9.60;1.00
3701;DHT22;1866;48.374;10.766;2023-04-19T11:44:16;9.90;5.50
3701;DHT22;1866;48.374;10.766;2023-04-19T11:46:57;9.60;1.00
3701;DHT22;1866;48.374;10.766;2023-04-19T11:49:27;9.80;1.00
3701;DHT22;1866;48.374;10.766;2023-04-19T11:51:58;9.80;1.00
3701;DHT22;1866;48.374;10.766;2023-04-19T11:54:25;10.00;1.00
3701;DHT22;1866;48.374;10.766;2023-04-19T11:57:01;9.90;1.00
3701;DHT22;1866;48.374;10.766;2023-04-19T11:59:31;10.00;1.00
3701;DHT22;1866;48.374;10.766;2023-04-19T12:02:07;9.60;22.40
3701;DHT22;1866;48.374;10.766;2023-04-19T12:04:34;9.90;30.50
3701;DHT22;1866;48.374;10.766;2023-04-19T12:07:02;9.90;5.30
3701;DHT22;1866;48.374;10.766;2023-04-19T12:09:32;9.90;1.00
3701;DHT22;1866;48.374;10.766;2023-04-19T12:11:59;9.50;1.00
3701;DHT22;1866;48.374;10.766;2023-04-19T12:14:28;9.60;50.70
3701;DHT22;1866;48.374;10.766;2023-04-19T12:17:08;9.60;8.60
3701;DHT22;1866;48.374;10.766;2023-04-19T12:19:36;9.80;1.00
3701;DHT22;1866;48.374;10.766;2023-04-19T12:22:13;9.80;1.00
3701;DHT22;1866;48.374;10.766;2023-04-19T12:24:41;9.70;1.00
3701;DHT22;1866;48.374;10.766;2023-04-19T12:27:08;9.30;31.70
3701;DHT22;1866;48.374;10.766;2023-04-19T12:29:37;9.00;93.90
3701;DHT22;1866;48.374;10.766;2023-04-19T12:32:08;9.00;99.90
3701;DHT22;1866;48.374;10.766;2023-04-19T12:34:35;9.00;99.90
3701;DHT22;1866;48.374;10.766;2023-04-19T12:37:02;8.70;99.90
3701;DHT22;1866;48.374;10.766;2023-04-19T12:39:29;8.60;99.90
3701;DHT22;1866;48.374;10.766;2023-04-19T12:41:56;8.60;99.90
3701;DHT22;1866;48.374;10.766;2023-04-19T12:44:23;8.60;99.90
3701;DHT22;1866;48.374;10.766;2023-04-19T12:46:50;8.70;99.90
3701;DHT22;1866;48.374;10.766;2023-04-19T12:49:23;8.50;99.90
3701;DHT22;1866;48.374;10.766;2023-04-19T12:51:50;8.30;99.90
3701;DHT22;1866;48.374;10.766;2023-04-19T12:54:17;8.30;99.90
3701;DHT22;1866;48.374;10.766;2023-04-19T12:56:44;8.40;1.00
3701;DHT22;1866;48.374;10.766;2023-04-19T12:59:11;8.40;1.00
3701;DHT22;1866;48.374;10.766;2023-04-19T13:01:38;8.10;99.90
3701;DHT22;1866;48.374;10.766;2023-04-19T13:04:06;8.20;1.00
3701;DHT22;1866;48.374;10.766;2023-04-19T13:06:37;8.10;99.90
3701;DHT22;1866;48.374;10.766;2023-04-19T13:09:05;8.30;99.90
3701;DHT22;1866;48.374;10.766;2023-04-19T13:11:33;8.30;99.90
3701;DHT22;1866;48.374;10.766;2023-04-19T13:14:02;8.10;99.90
3701;DHT22;1866;48.374;10.766;2023-04-19T13:16:30;8.00;99.90
3701;DHT22;1866;48.374;10.766;2023-04-19T13:18:57;8.00;99.90
3701;DHT22;1866;48.374;10.766;2023-04-19T13:21:24;8.10;99.90
3701;DHT22;1866;48.374;10.766;2023-04-19T13:23:53;8.00;99.90
3701;DHT22;1866;48.374;10.766;2023-04-19T13:26:20;8.00;99.90
3701;DHT22;1866;48.374;10.766;2023-04-19T13:28:50;8.10;99.90
3701;DHT22;1866;48.374;10.766;2023-04-19T13:31:18;8.10;99.90
3701;DHT22;1866;48.374;10.766;2023-04-19T13:33:45;8.00;99.90
3701;DHT22;1866;48.374;10.766;2023-04-19T13:36:12;8.10;99.90
3701;DHT22;1866;48.374;10.766;2023-04-19T13:38:39;8.30;99.90
3701;DHT22;1866;48.374;10.766;2023-04-19T13:41:07;8.10;99.90
3701;DHT22;1866;48.374;10.766;2023-04-19T13:43:34;8.20;99.90
3701;DHT22;1866;48.374;10.766;2023-04-19T13:46:01;7.80;99.90
3701;DHT22;1866;48.374;10.766;2023-04-19T13:48:28;8.00;99.90
3701;DHT22;1866;48.374;10.766;2023-04-19T13:50:56;8.20;99.90
3701;DHT22;1866;48.374;10.766;2023-04-19T13:53:26;8.00;99.90
3701;DHT22;1866;48.374;10.766;2023-04-19T13:55:53;8.10;99.90
3701;DHT22;1866;48.374;10.766;2023-04-19T13:58:22;8.00;99.90
3701;DHT22;1866;48.374;10.766;2023-04-19T14:00:49;7.80;99.90
3701;DHT22;1866;48.374;10.766;2023-04-19T14:03:16;7.90;1.00
3701;DHT22;1866;48.374;10.766;2023-04-19T14:05:43;7.90;99.90
3701;DHT22;1866;48.374;10.766;2023-04-19T14:08:12;7.70;99.90
3701;DHT22;1866;48.374;10.766;2023-04-19T14:10:40;7.60;99.90
3701;DHT22;1866;48.374;10.766;2023-04-19T14:13:08;7.50;99.90
3701;DHT22;1866;48.374;10.766;2023-04-19T14:15:37;7.50;99.90
3701;DHT22;1866;48.374;10.766;2023-04-19T14:18:04;7.40;99.90
3701;DHT22;1866;48.374;10.766;2023-04-19T14:20:31;7.70;99.90
3701;DHT22;1866;48.374;10.766;2023-04-19T14:23:00;7.50;99.90
3701;DHT22;1866;48.374;10.766;2023-04-19T14:25:28;7.30;99.90
3701;DHT22;1866;48.374;10.766;2023-04-19T14:27:56;7.10;99.90
3701;DHT22;1866;48.374;10.766;2023-04-19T14:30:28;7.20;99.90
3701;DHT22;1866;48.374;10.766;2023-04-19T14:32:56;7.10;99.90
3701;DHT22;1866;48.374;10.766;2023-04-19T14:35:26;7.20;99.90
3701;DHT22;1866;48.374;10.766;2023-04-19T14:37:53;7.20;99.90
3701;DHT22;1866;48.374;10.766;2023-04-19T14:40:20;7.00;99.90
3701;DHT22;1866;48.374;10.766;2023-04-19T14:42:47;7.10;99.90
3701;DHT22;1866;48.374;10.766;2023-04-19T14:45:15;6.90;54.40
3701;DHT22;1866;48.374;10.766;2023-04-19T14:47:42;6.90;55.70
3701;DHT22;1866;48.374;10.766;2023-04-19T14:50:11;6.80;65.40
3701;DHT22;1866;48.374;10.766;2023-04-19T14:52:38;6.90;63.10
3701;DHT22;1866;48.374;10.766;2023-04-19T14:55:07;6.90;78.50
3701;DHT22;1866;48.374;10.766;2023-04-19T14:57:36;6.90;99.90
3701;DHT22;1866;48.374;10.766;2023-04-19T15:00:03;7.00;88.30
3701;DHT22;1866;48.374;10.766;2023-04-19T15:02:31;6.90;89.50
3701;DHT22;1866;48.374;10.766;2023-04-19T15:04:57;6.90;98.30
3701;DHT22;1866;48.374;10.766;2023-04-19T15:07:29;7.00;99.90
3701;DHT22;1866;48.374;10.766;2023-04-19T15:09:57;6.90;99.90
3701;DHT22;1866;48.374;10.766;2023-04-19T15:12:24;7.30;99.90
3701;DHT22;1866;48.374;10.766;2023-04-19T15:14:51;7.50;99.90
3701;DHT22;1866;48.374;10.766;2023-04-19T15:17:18;7.40;74.20
3701;DHT22;1866;48.374;10.766;2023-04-19T15:19:45;7.20;99.90
3701;DHT22;1866;48.374;10.766;2023-04-19T15:22:12;7.50;99.90
3701;DHT22;1866;48.374;10.766;2023-04-19T15:24:41;7.40;99.90
3701;DHT22;1866;48.374;10.766;2023-04-19T15:27:08;7.40;99.90
3701;DHT22;1866;48.374;10.766;2023-04-19T15:29:35;7.40;99.90
3701;DHT22;1866;48.374;10.766;2023-04-19T15:32:05;7.40;99.90
3701;DHT22;1866;48.374;10.766;2023-04-19T15:34:32;7.50;99.90
3701;DHT22;1866;48.374;10.766;2023-04-19T15:36:58;7.50;99.90
3701;DHT22;1866;48.374;10.766;2023-04-19T15:39:26;7.60;99.90
3701;DHT22;1866;48.374;10.766;2023-04-19T15:41:56;7.60;99.90
3701;DHT22;1866;48.374;10.766;2023-04-19T15:44:24;7.30;99.90
3701;DHT22;1866;48.374;10.766;2023-04-19T15:46:51;7.10;99.90
3701;DHT22;1866;48.374;10.766;2023-04-19T15:49:18;7.20;99.90
3701;DHT22;1866;48.374;10.766;2023-04-19T15:51:45;7.30;99.90
3701;DHT22;1866;48.374;10.766;2023-04-19T15:54:12;7.30;99.90
3701;DHT22;1866;48.374;10.766;2023-04-19T15:56:39;7.40;99.90
3701;DHT22;1866;48.374;10.766;2023-04-19T15:59:09;7.30;99.90
3701;DHT22;1866;48.374;10.766;2023-04-19T16:01:36;6.80;99.90
3701;DHT22;1866;48.374;10.766;2023-04-19T16:04:03;6.90;99.90
3701;DHT22;1866;48.374;10.766;2023-04-19T16:06:32;6.70;99.90
3701;DHT22;1866;48.374;10.766;2023-04-19T16:09:00;6.50;99.90
3701;DHT22;1866;48.374;10.766;2023-04-19T16:11:27;6.60;99.90